Time;durP1;ratioP1;P1;durP2;ratioP2;P2;SDS_P1;SDS_P2;PMS_P1;PMS_P2;Temp;Humidity;BMP_temperature;BMP_pressure;BME280_temperature;BME280_humidity;BME280_pressure;Samples;Min_cycle;Max_cycle;Signal;HPM_P1;HPM_P2
2022/05/15 00:00:37;;;;;;;8.07;1.60;;;21.30;47.70;;;;;;5037676;28;20033;-66
2022/05/15 00:00:41;;;;;;;6.22;1.48;;;21.20;47.00;;;;;;5035031;28;20028;-66
2022/05/15 00:03:12;;;;;;;7.13;1.60;;;21.20;47.50;;;;;;5034178;28;20547;-66
2022/05/15 00:05:39;;;;;;;9.55;1.88;;;21.20;47.30;;;;;;5038285;28;20397;-66
2022/05/15 00:08:05;;;;;;;5.50;1.50;;;21.20;47.20;;;;;;5035030;28;20029;-66
2022/05/15 00:10:31;;;;;;;4.50;1.40;;;21.20;47.00;;;;;;5030759;28;20037;-66
2022/05/15 00:12:57;;;;;;;4.72;1.67;;;21.20;46.90;;;;;;5034466;28;20673;-66
2022/05/15 00:15:22;;;;;;;5.50;1.48;;;21.20;46.70;;;;;;5032759;28;20037;-66
2022/05/15 00:17:48;;;;;;;4.85;1.30;;;21.20;46.70;;;;;;5034555;28;20492;-66
2022/05/15 00:20:14;;;;;;;5.82;1.70;;;21.20;46.40;;;;;;5031117;28;20118;-66
2022/05/15 00:22:40;;;;;;;5.78;1.60;;;21.20;46.30;;;;;;5046894;28;20040;-66
2022/05/15 00:25:06;;;;;;;4.82;1.45;;;21.20;47.00;;;;;;5032800;28;20025;-66
2022/05/15 00:27:32;;;;;;;4.95;1.20;;;21.20;46.10;;;;;;5039182;28;20025;-66
2022/05/15 00:29:58;;;;;;;9.68;1.70;;;21.10;45.90;;;;;;5033749;28;20045;-66
2022/05/15 00:32:23;;;;;;;4.95;1.50;;;21.20;46.00;;;;;;5036582;28;20033;-66
2022/05/15 00:34:49;;;;;;;4.65;1.13;;;21.20;45.90;;;;;;5038028;28;20385;-66
2022/05/15 00:37:15;;;;;;;4.57;1.30;;;21.10;45.60;;;;;;5033177;28;20078;-66
2022/05/15 00:39:40;;;;;;;6.55;1.40;;;21.10;45.80;;;;;;5035029;28;20112;-66
2022/05/15 00:42:10;;;;;;;6.35;1.50;;;21.20;45.70;;;;;;5034437;28;20057;-66
2022/05/15 00:44:35;;;;;;;3.63;1.42;;;21.20;45.70;;;;;;5029261;28;20045;-66
2022/05/15 00:47:01;;;;;;;6.13;1.75;;;21.20;45.70;;;;;;5039684;28;20381;-66
2022/05/15 00:49:27;;;;;;;5.68;1.60;;;21.20;45.80;;;;;;5031499;28;20119;-66
2022/05/15 00:51:57;;;;;;;6.97;1.60;;;21.20;45.70;;;;;;5033335;28;20064;-66
2022/05/15 00:54:37;;;;;;;5.22;1.40;;;21.10;45.60;;;;;;5042206;28;20037;-66
2022/05/15 00:57:21;;;;;;;4.60;1.50;;;21.20;45.90;;;;;;5032557;28;20037;-66
2022/05/15 01:00:10;;;;;;;7.93;1.80;;;21.10;45.80;;;;;;5032826;28;20025;-66
2022/05/15 01:02:40;;;;;;;6.53;1.73;;;21.10;45.90;;;;;;5032701;28;20025;-66
2022/05/15 01:05:08;;;;;;;9.10;1.40;;;21.10;46.00;;;;;;5040164;28;20081;-66
2022/05/15 01:07:33;;;;;;;6.22;1.30;;;21.00;46.10;;;;;;5030551;28;20061;-66
2022/05/15 01:10:00;;;;;;;6.05;1.50;;;21.00;46.10;;;;;;5032540;28;20076;-66
2022/05/15 01:12:27;;;;;;;4.32;1.40;;;21.00;46.20;;;;;;5034313;28;20517;-66
2022/05/15 01:14:53;;;;;;;5.43;1.30;;;20.90;46.30;;;;;;5032919;28;20029;-66
2022/05/15 01:17:19;;;;;;;4.03;1.40;;;20.90;46.60;;;;;;5030840;28;20022;-66
2022/05/15 01:19:45;;;;;;;5.43;1.40;;;20.90;46.60;;;;;;5044438;28;20074;-66
2022/05/15 01:22:15;;;;;;;5.72;1.60;;;20.90;46.80;;;;;;5035118;28;20014;-66
2022/05/15 01:24:44;;;;;;;3.17;1.40;;;20.80;46.90;;;;;;5032916;28;20541;-66
2022/05/15 01:27:12;;;;;;;4.97;1.58;;;20.80;46.90;;;;;;5034809;28;20030;-66
2022/05/15 01:29:43;;;;;;;5.15;1.50;;;20.70;47.10;;;;;;5046282;28;20476;-66
2022/05/15 01:32:10;;;;;;;4.28;1.20;;;20.70;47.30;;;;;;5034067;28;20025;-66
2022/05/15 01:34:37;;;;;;;5.95;1.70;;;20.60;47.40;;;;;;5047114;28;20115;-66
2022/05/15 01:37:02;;;;;;;6.15;1.40;;;20.60;47.60;;;;;;5036119;28;20045;-66
2022/05/15 01:39:29;;;;;;;5.28;1.60;;;20.60;47.80;;;;;;5031876;28;20072;-66
2022/05/15 01:41:55;;;;;;;6.05;1.40;;;20.60;47.80;;;;;;5034701;28;20048;-66
2022/05/15 01:44:21;;;;;;;6.60;1.70;;;20.50;48.00;;;;;;5047467;28;20044;-66
2022/05/15 01:46:48;;;;;;;3.85;1.40;;;20.50;48.00;;;;;;5030782;28;20045;-66
2022/05/15 01:49:15;;;;;;;4.85;1.60;;;20.40;47.90;;;;;;5032023;28;20041;-66
2022/05/15 01:51:42;;;;;;;7.05;1.42;;;20.50;48.20;;;;;;5034063;28;20028;-66
2022/05/15 01:54:09;;;;;;;4.20;1.40;;;20.40;48.40;;;;;;5031497;28;20486;-66
2022/05/15 01:56:36;;;;;;;8.00;1.70;;;20.40;48.40;;;;;;5032388;28;20021;-66
2022/05/15 01:59:06;;;;;;;5.50;1.40;;;20.40;48.50;;;;;;5044433;28;20045;-66
2022/05/15 02:01:32;;;;;;;7.40;1.58;;;20.40;48.50;;;;;;5039494;28;20035;-66
2022/05/15 02:03:57;;;;;;;6.25;1.65;;;20.40;48.50;;;;;;5036640;28;20071;-66
2022/05/15 02:06:23;;;;;;;8.93;1.90;;;20.40;48.90;;;;;;5035835;28;20403;-66
2022/05/15 02:08:49;;;;;;;7.68;1.67;;;20.30;48.70;;;;;;5030245;28;20036;-66
2022/05/15 02:11:14;;;;;;;5.90;2.03;;;20.30;48.80;;;;;;5030761;28;20033;-66
2022/05/15 02:13:41;;;;;;;4.68;1.60;;;20.20;49.00;;;;;;5032659;28;20039;-66
2022/05/15 02:16:07;;;;;;;10.05;1.70;;;20.20;49.00;;;;;;5039776;28;20029;-66
2022/05/15 02:18:33;;;;;;;4.65;1.60;;;20.20;49.00;;;;;;5039414;28;20038;-66
2022/05/15 02:20:59;;;;;;;3.95;1.55;;;20.20;49.20;;;;;;5034933;28;20108;-66
2022/05/15 02:23:26;;;;;;;3.92;1.50;;;20.20;49.30;;;;;;5033395;28;20116;-66
2022/05/15 02:25:52;;;;;;;7.68;1.60;;;20.20;49.20;;;;;;5030234;28;20025;-67
2022/05/15 02:28:18;;;;;;;7.57;1.90;;;20.20;49.30;;;;;;5036249;28;20084;-66
2022/05/15 02:30:44;;;;;;;3.55;1.50;;;20.20;49.40;;;;;;5042509;28;20333;-67
2022/05/15 02:33:09;;;;;;;8.63;1.75;;;20.20;49.60;;;;;;5042797;28;20029;-67
2022/05/15 02:35:35;;;;;;;8.25;1.60;;;20.20;49.50;;;;;;5031957;28;20021;-67
2022/05/15 02:38:01;;;;;;;4.28;1.60;;;20.20;49.70;;;;;;5028844;28;20037;-66
2022/05/15 02:40:26;;;;;;;6.95;1.45;;;20.20;50.10;;;;;;5035198;28;20034;-66
2022/05/15 02:42:55;;;;;;;3.80;1.70;;;20.20;50.00;;;;;;5032688;28;20053;-66
2022/05/15 02:45:21;;;;;;;5.78;1.77;;;20.20;49.90;;;;;;5032265;28;20033;-67
2022/05/15 02:47:47;;;;;;;5.63;1.60;;;20.20;50.10;;;;;;5028603;28;20032;-66
2022/05/15 02:52:57;;;;;;;5.20;1.35;;;20.10;50.50;;;;;;5029402;28;20108;-67
2022/05/15 02:55:25;;;;;;;5.47;1.60;;;20.10;50.70;;;;;;5039001;28;20116;-66
2022/05/15 02:57:51;;;;;;;5.78;1.42;;;20.10;52.10;;;;;;5040108;28;20042;-66
2022/05/15 03:00:19;;;;;;;5.15;1.42;;;20.00;52.70;;;;;;5034983;28;20025;-66
2022/05/15 03:02:44;;;;;;;4.43;1.65;;;20.00;53.00;;;;;;5033608;28;20119;-66
2022/05/15 03:05:12;;;;;;;5.47;1.75;;;19.90;53.20;;;;;;5041514;28;20194;-67
2022/05/15 03:07:38;;;;;;;6.38;1.95;;;19.90;53.20;;;;;;5035352;28;20037;-66
2022/05/15 03:10:05;;;;;;;5.68;1.70;;;19.80;53.40;;;;;;5035339;28;20036;-66
2022/05/15 03:12:31;;;;;;;6.70;1.60;;;19.80;53.30;;;;;;5036621;28;20022;-67
2022/05/15 03:14:56;;;;;;;3.92;1.60;;;19.80;53.60;;;;;;5033435;28;20033;-66
2022/05/15 03:17:22;;;;;;;8.25;2.00;;;19.80;53.60;;;;;;5046258;28;20058;-66
2022/05/15 03:19:48;;;;;;;7.47;1.73;;;19.80;53.90;;;;;;5042700;28;20372;-66
2022/05/15 03:22:13;;;;;;;5.28;1.60;;;19.80;54.10;;;;;;5046119;28;20516;-66
2022/05/15 03:24:39;;;;;;;6.13;1.70;;;19.70;54.40;;;;;;5045847;28;20037;-67
2022/05/15 03:27:05;;;;;;;4.10;1.58;;;19.80;54.40;;;;;;5044849;28;20037;-66
2022/05/15 03:29:31;;;;;;;5.20;1.65;;;19.80;54.30;;;;;;5041680;28;20516;-66
2022/05/15 03:31:57;;;;;;;5.28;1.70;;;19.80;54.60;;;;;;5033251;28;20519;-66
2022/05/15 03:34:23;;;;;;;7.50;2.00;;;19.80;54.80;;;;;;5034624;28;20030;-66
2022/05/15 03:36:51;;;;;;;6.22;1.60;;;19.80;54.80;;;;;;5036430;28;20503;-67
2022/05/15 03:39:21;;;;;;;7.63;1.80;;;19.80;54.70;;;;;;5039640;28;20029;-66
2022/05/15 03:41:49;;;;;;;9.60;1.97;;;19.80;54.60;;;;;;5033330;28;20103;-67
2022/05/15 03:44:14;;;;;;;5.93;2.00;;;19.80;54.60;;;;;;5046682;28;20311;-67
2022/05/15 03:46:42;;;;;;;6.75;1.63;;;19.80;54.60;;;;;;5037345;28;20021;-66
2022/05/15 03:49:08;;;;;;;5.03;1.70;;;19.80;54.90;;;;;;5044386;28;20032;-66
2022/05/15 03:51:46;;;;;;;8.90;1.90;;;19.80;54.90;;;;;;5043880;28;20022;-67
2022/05/15 03:54:12;;;;;;;5.85;1.70;;;19.80;55.10;;;;;;5033462;28;20029;-66
2022/05/15 03:56:51;;;;;;;6.82;1.77;;;19.80;55.00;;;;;;5037839;28;20029;-66
2022/05/15 03:59:32;;;;;;;6.82;1.90;;;19.80;55.20;;;;;;5031821;28;20455;-67
2022/05/15 04:01:59;;;;;;;6.57;1.60;;;19.80;55.10;;;;;;5034034;28;20038;-66
2022/05/15 04:04:25;;;;;;;5.60;1.88;;;19.70;55.10;;;;;;5033759;28;20448;-66
2022/05/15 04:06:50;;;;;;;5.85;1.80;;;19.70;56.30;;;;;;5041953;28;20079;-66
2022/05/15 04:09:16;;;;;;;3.92;1.85;;;19.70;55.40;;;;;;5041689;28;20038;-66
2022/05/15 04:11:42;;;;;;;4.00;1.70;;;19.70;55.60;;;;;;5032396;28;20025;-66
2022/05/15 04:14:09;;;;;;;5.35;1.80;;;19.70;55.60;;;;;;5039162;28;20052;-67
2022/05/15 04:16:35;;;;;;;7.60;1.70;;;19.70;55.50;;;;;;5039689;28;20443;-66
2022/05/15 04:19:01;;;;;;;8.05;1.63;;;19.70;55.60;;;;;;5040560;28;20475;-66
2022/05/15 04:21:28;;;;;;;5.28;1.58;;;19.70;55.80;;;;;;5038312;28;20484;-67
2022/05/15 04:23:54;;;;;;;6.28;1.88;;;19.70;55.80;;;;;;5040590;28;20753;-67
2022/05/15 04:26:20;;;;;;;4.50;1.50;;;19.60;55.60;;;;;;5039165;28;20096;-66
2022/05/15 04:28:46;;;;;;;9.75;1.80;;;19.60;55.60;;;;;;5032863;28;20053;-67
2022/05/15 04:31:11;;;;;;;5.10;1.83;;;19.60;55.60;;;;;;5034552;28;20048;-66
2022/05/15 04:33:37;;;;;;;6.80;1.80;;;19.60;55.80;;;;;;5032716;28;20378;-66
2022/05/15 04:36:03;;;;;;;5.78;1.83;;;19.60;55.80;;;;;;5033197;28;20116;-66
2022/05/15 04:38:29;;;;;;;6.43;2.38;;;19.60;56.10;;;;;;5047284;28;20132;-66
2022/05/15 04:40:55;;;;;;;6.72;1.80;;;19.70;56.00;;;;;;5031679;28;20635;-66
2022/05/15 04:43:21;;;;;;;5.57;2.13;;;19.70;56.10;;;;;;5037127;28;20628;-66
2022/05/15 04:45:46;;;;;;;4.25;1.70;;;19.60;55.90;;;;;;5038579;28;20021;-66
2022/05/15 04:48:12;;;;;;;3.92;1.50;;;19.60;56.00;;;;;;5039159;28;20095;-66
2022/05/15 04:50:38;;;;;;;4.50;1.60;;;19.60;56.10;;;;;;5044957;28;20033;-66
2022/05/15 04:53:05;;;;;;;7.07;1.70;;;19.60;56.10;;;;;;5034029;28;20116;-66
2022/05/15 04:55:31;;;;;;;4.05;1.80;;;19.60;56.50;;;;;;5031333;28;20133;-66
2022/05/15 04:57:56;;;;;;;5.05;1.70;;;19.60;56.10;;;;;;5035634;28;20036;-66
2022/05/15 05:00:22;;;;;;;7.57;2.15;;;19.50;56.40;;;;;;5035146;28;20120;-67
2022/05/15 05:02:48;;;;;;;4.63;1.67;;;19.50;56.10;;;;;;5032962;28;20033;-66
2022/05/15 05:05:14;;;;;;;5.13;1.70;;;19.50;56.40;;;;;;5037029;28;20036;-66
2022/05/15 05:07:40;;;;;;;6.63;1.90;;;19.50;56.50;;;;;;5032994;28;20031;-67
2022/05/15 05:10:09;;;;;;;6.88;1.77;;;19.50;56.40;;;;;;5032658;28;20396;-67
2022/05/15 05:12:34;;;;;;;4.35;1.77;;;19.50;56.30;;;;;;5033516;28;20024;-67
2022/05/15 05:15:00;;;;;;;6.55;1.80;;;19.50;56.40;;;;;;5031084;28;20025;-67
2022/05/15 05:17:26;;;;;;;5.20;1.70;;;19.50;56.50;;;;;;5039923;28;20436;-66
2022/05/15 05:19:51;;;;;;;6.53;1.70;;;19.60;56.40;;;;;;5032992;28;20040;-67
2022/05/15 05:22:17;;;;;;;5.82;1.75;;;19.60;56.20;;;;;;5033046;28;20549;-68
2022/05/15 05:24:43;;;;;;;6.65;1.80;;;19.60;56.50;;;;;;5037632;28;20044;-67
2022/05/15 05:27:09;;;;;;;7.38;1.55;;;19.60;56.30;;;;;;5043905;28;20025;-68
2022/05/15 05:29:35;;;;;;;5.28;1.67;;;19.60;56.30;;;;;;5047335;28;20045;-68
2022/05/15 05:32:01;;;;;;;5.18;1.80;;;19.60;56.40;;;;;;5028478;28;20035;-67
2022/05/15 05:34:27;;;;;;;5.40;1.67;;;19.60;56.60;;;;;;5045049;28;20515;-67
2022/05/15 05:36:53;;;;;;;8.27;1.98;;;19.60;57.10;;;;;;5038204;28;20024;-67
2022/05/15 05:39:19;;;;;;;4.63;1.60;;;19.60;57.30;;;;;;5035794;28;20500;-67
2022/05/15 05:41:45;;;;;;;4.88;1.70;;;19.60;57.90;;;;;;5032206;28;20524;-67
2022/05/15 05:44:11;;;;;;;5.72;1.60;;;19.60;57.80;;;;;;5040261;28;20408;-67
2022/05/15 05:46:37;;;;;;;6.30;1.83;;;19.60;57.90;;;;;;5033401;28;20036;-67
2022/05/15 05:49:03;;;;;;;5.60;2.00;;;19.50;57.90;;;;;;5036176;28;20033;-67
2022/05/15 05:51:28;;;;;;;5.20;1.80;;;19.50;57.80;;;;;;5036476;28;20021;-67
2022/05/15 05:53:54;;;;;;;5.68;1.80;;;19.60;57.90;;;;;;5039893;28;20066;-67
2022/05/15 05:56:20;;;;;;;7.55;1.90;;;19.60;57.90;;;;;;5038413;28;20017;-67
2022/05/15 05:58:46;;;;;;;5.57;1.90;;;19.60;58.20;;;;;;5036839;28;20029;-67
2022/05/15 06:01:13;;;;;;;6.88;2.08;;;19.70;58.20;;;;;;5030732;28;20021;-67
2022/05/15 06:06:23;;;;;;;6.35;1.80;;;19.70;58.00;;;;;;5033778;28;20086;-67
2022/05/15 06:08:49;;;;;;;5.18;1.55;;;19.70;58.00;;;;;;5043903;28;20033;-67
2022/05/15 06:11:15;;;;;;;7.93;1.80;;;19.70;57.90;;;;;;5042209;28;20140;-67
2022/05/15 06:13:40;;;;;;;5.68;1.73;;;19.70;58.30;;;;;;5037641;28;20476;-67
2022/05/15 06:16:07;;;;;;;4.75;1.80;;;19.70;58.30;;;;;;5036435;28;20017;-67
2022/05/15 06:18:34;;;;;;;6.50;1.80;;;19.60;58.20;;;;;;5035432;28;20041;-67
2022/05/15 06:20:59;;;;;;;7.18;1.75;;;19.60;58.40;;;;;;5041131;28;20021;-67
2022/05/15 06:23:25;;;;;;;7.68;1.90;;;19.60;58.50;;;;;;5042063;28;20041;-67
2022/05/15 06:25:51;;;;;;;6.07;1.95;;;19.60;58.40;;;;;;5035922;28;20021;-67
2022/05/15 06:28:17;;;;;;;6.10;1.85;;;19.50;58.50;;;;;;5038288;28;20496;-67
2022/05/15 06:30:43;;;;;;;5.55;1.95;;;19.50;58.60;;;;;;5034192;28;20045;-67
2022/05/15 06:33:09;;;;;;;3.95;1.90;;;19.60;58.80;;;;;;5035571;28;20611;-67
2022/05/15 06:35:35;;;;;;;6.30;1.83;;;19.60;58.70;;;;;;5031606;28;20052;-69
2022/05/15 06:38:06;;;;;;;6.93;2.08;;;19.70;58.80;;;;;;5037001;28;20097;-67
2022/05/15 06:40:32;;;;;;;6.50;1.80;;;19.70;58.60;;;;;;5039686;28;20048;-68
2022/05/15 06:42:58;;;;;;;6.82;2.00;;;19.80;58.50;;;;;;5044102;28;20048;-68
2022/05/15 06:45:25;;;;;;;5.20;1.70;;;19.80;58.10;;;;;;5045279;28;20029;-67
2022/05/15 06:47:51;;;;;;;5.90;1.77;;;19.90;58.20;;;;;;5034115;28;20135;-66
2022/05/15 06:50:17;;;;;;;5.60;1.80;;;20.00;57.60;;;;;;5037365;28;20029;-68
2022/05/15 06:52:43;;;;;;;5.50;1.88;;;20.00;57.70;;;;;;5038059;28;20040;-68
2022/05/15 06:55:16;;;;;;;6.65;1.80;;;20.10;58.20;;;;;;5041746;28;20017;-68
2022/05/15 06:57:43;;;;;;;5.93;1.92;;;20.10;57.90;;;;;;5047175;28;20102;-67
2022/05/15 07:00:17;;;;;;;5.90;2.08;;;20.10;57.90;;;;;;5044851;28;20051;-67
2022/05/15 07:02:43;;;;;;;5.03;1.73;;;20.10;59.10;;;;;;5047993;28;20033;-67
2022/05/15 07:05:14;;;;;;;7.15;2.00;;;20.20;58.10;;;;;;5039932;28;20025;-67
2022/05/15 07:07:40;;;;;;;6.45;1.90;;;20.20;58.10;;;;;;5040943;28;20033;-67
2022/05/15 07:10:07;;;;;;;6.30;2.30;;;20.20;58.20;;;;;;5042927;28;20442;-67
2022/05/15 07:12:33;;;;;;;3.75;2.05;;;20.20;58.30;;;;;;5044350;28;20480;-67
2022/05/15 07:14:58;;;;;;;6.35;2.30;;;20.30;58.80;;;;;;5039720;28;20480;-70
2022/05/15 07:17:24;;;;;;;5.00;1.80;;;20.40;58.70;;;;;;5036692;28;20033;-67
2022/05/15 07:19:50;;;;;;;6.13;1.90;;;21.20;60.90;;;;;;5041936;28;20021;-67
2022/05/15 07:22:15;;;;;;;6.72;1.85;;;20.50;58.60;;;;;;5043973;28;20033;-68
2022/05/15 07:24:41;;;;;;;7.70;1.95;;;21.50;60.30;;;;;;5040149;28;20641;-68
2022/05/15 07:27:09;;;;;;;4.50;1.90;;;22.00;60.90;;;;;;5036516;28;20247;-68
2022/05/15 07:29:37;;;;;;;7.10;2.10;;;20.70;58.20;;;;;;5042813;28;20033;-68
2022/05/15 07:32:05;;;;;;;6.15;2.08;;;20.80;58.10;;;;;;5045002;28;20033;-69
2022/05/15 07:34:31;;;;;;;5.53;2.00;;;20.70;58.10;;;;;;5041345;28;20029;-68
2022/05/15 07:36:57;;;;;;;6.38;2.10;;;20.80;58.70;;;;;;5044730;28;20096;-68
2022/05/15 07:39:22;;;;;;;4.22;2.00;;;20.80;59.40;;;;;;5037841;28;20476;-67
2022/05/15 07:41:49;;;;;;;8.50;2.40;;;20.70;58.60;;;;;;5035500;28;20045;-67
2022/05/15 07:44:16;;;;;;;6.45;2.10;;;20.70;58.60;;;;;;5035592;28;20047;-67
2022/05/15 07:46:42;;;;;;;5.60;2.17;;;20.70;59.10;;;;;;5047410;28;20018;-67
2022/05/15 07:49:08;;;;;;;6.10;2.10;;;20.70;61.80;;;;;;5040247;28;20029;-68
2022/05/15 07:51:35;;;;;;;7.22;2.25;;;20.90;61.80;;;;;;5039482;28;20025;-67
2022/05/15 07:54:01;;;;;;;4.22;1.90;;;20.60;59.70;;;;;;5033582;28;20025;-67
2022/05/15 07:56:27;;;;;;;5.32;1.83;;;18.50;61.30;;;;;;5043457;28;20762;-67
2022/05/15 07:58:53;;;;;;;4.97;2.03;;;20.40;60.00;;;;;;5044275;28;20438;-66
2022/05/15 08:01:19;;;;;;;6.68;2.20;;;20.40;60.20;;;;;;5039216;28;20041;-67
2022/05/15 08:03:45;;;;;;;8.20;1.90;;;20.30;60.20;;;;;;5042129;28;20485;-68
2022/05/15 08:09:00;;;;;;;6.03;2.08;;;20.40;60.40;;;;;;5045747;28;20047;-66
2022/05/15 08:11:29;;;;;;;6.28;2.50;;;20.50;60.30;;;;;;5035559;28;20492;-67
2022/05/15 08:13:56;;;;;;;9.73;2.30;;;20.70;59.70;;;;;;5052778;28;20103;-67
2022/05/15 08:16:23;;;;;;;5.00;1.80;;;20.70;58.30;;;;;;5037912;28;20524;-66
2022/05/15 08:24:17;;;;;;;6.45;2.08;;;20.80;59.40;;;;;;5036486;28;20052;-67
2022/05/15 08:26:45;;;;;;;8.40;2.47;;;20.70;59.10;;;;;;5042676;28;20029;-67
2022/05/15 08:29:11;;;;;;;4.85;2.00;;;20.60;59.60;;;;;;5032707;28;20025;-67
2022/05/15 08:31:39;;;;;;;5.30;2.03;;;20.60;59.60;;;;;;5042416;28;20525;-68
2022/05/15 08:34:08;;;;;;;5.57;1.90;;;20.80;59.80;;;;;;5041866;28;20033;-67
2022/05/15 08:36:34;;;;;;;6.35;2.30;;;20.90;58.80;;;;;;5031637;28;20025;-67
2022/05/15 08:39:00;;;;;;;5.80;2.17;;;21.30;61.30;;;;;;5039954;28;20040;-69
2022/05/15 08:41:42;;;;;;;7.20;2.55;;;20.80;60.90;;;;;;5034979;28;20420;-68
2022/05/15 08:44:18;;;;;;;4.93;2.13;;;22.90;60.20;;;;;;5042316;28;20037;-67
2022/05/15 08:46:56;;;;;;;6.32;2.10;;;21.40;57.10;;;;;;5041982;28;20101;-68
2022/05/15 08:49:31;;;;;;;6.35;2.45;;;21.50;56.90;;;;;;5047274;28;20054;-68
2022/05/15 08:52:13;;;;;;;5.65;2.35;;;22.00;59.40;;;;;;5043788;28;20583;-66
2022/05/15 08:54:53;;;;;;;4.82;2.03;;;21.80;56.90;;;;;;5035036;28;20033;-69
2022/05/15 08:57:38;;;;;;;5.93;2.47;;;21.80;56.30;;;;;;5036843;28;20044;-68
2022/05/15 09:00:10;;;;;;;5.55;2.40;;;21.80;56.20;;;;;;5039762;28;20025;-68
2022/05/15 09:02:41;;;;;;;7.65;2.30;;;22.00;56.50;;;;;;5042185;28;20030;-68
2022/05/15 09:05:08;;;;;;;5.00;2.20;;;22.20;55.60;;;;;;5045462;28;20025;-69
2022/05/15 09:07:40;;;;;;;6.13;2.20;;;23.30;56.90;;;;;;5043018;28;20024;-69
2022/05/15 09:10:16;;;;;;;5.53;2.05;;;22.90;54.10;;;;;;5037497;28;20033;-68
2022/05/15 09:12:50;;;;;;;5.53;2.55;;;23.20;53.40;;;;;;5039939;28;20036;-68
2022/05/15 09:15:23;;;;;;;5.38;2.22;;;23.20;53.40;;;;;;5035610;28;20041;-68
2022/05/15 09:18:03;;;;;;;6.85;2.40;;;23.30;52.70;;;;;;5044267;28;20029;-68
2022/05/15 09:20:45;;;;;;;7.95;2.33;;;23.10;52.50;;;;;;5046157;28;20092;-68
2022/05/15 09:23:29;;;;;;;7.20;2.30;;;23.30;52.70;;;;;;5045640;28;20075;-68
2022/05/15 09:26:09;;;;;;;6.30;2.40;;;23.40;53.30;;;;;;5034794;28;20116;-69
2022/05/15 09:28:47;;;;;;;6.95;2.47;;;23.70;52.30;;;;;;5047232;28;20033;-68
2022/05/15 09:31:28;;;;;;;6.57;2.35;;;23.90;51.80;;;;;;5042150;28;20036;-68
2022/05/15 09:34:04;;;;;;;6.35;2.25;;;24.40;50.00;;;;;;5041772;28;20123;-68
2022/05/15 09:36:41;;;;;;;5.05;2.40;;;24.70;50.50;;;;;;5032296;28;20049;-68
2022/05/15 09:39:38;;;;;;;8.98;2.50;;;24.70;49.10;;;;;;5031521;28;20028;-67
2022/05/15 09:45:26;;;;;;;6.63;2.60;;;25.60;47.80;;;;;;5041623;28;20075;-68
2022/05/15 09:47:52;;;;;;;7.68;2.60;;;26.10;45.70;;;;;;5045642;28;20544;-68
2022/05/15 09:50:42;;;;;;;6.10;2.50;;;26.60;44.10;;;;;;5036647;28;20057;-68
2022/05/15 09:53:15;;;;;;;8.93;2.88;;;27.00;44.70;;;;;;5044182;28;20040;-68
2022/05/15 09:55:41;;;;;;;7.40;2.70;;;27.30;43.80;;;;;;5032870;28;20488;-69
2022/05/15 09:58:18;;;;;;;7.22;2.38;;;27.80;41.60;;;;;;5042672;28;20021;-68
2022/05/15 10:00:43;;;;;;;8.75;2.15;;;28.20;41.50;;;;;;5042248;28;20025;-68
2022/05/15 10:03:36;;;;;;;7.60;2.35;;;28.60;39.90;;;;;;5042322;28;20060;-68
2022/05/15 10:06:08;;;;;;;7.20;2.30;;;28.90;38.80;;;;;;5027351;28;20097;-68
2022/05/15 10:08:36;;;;;;;5.32;2.17;;;29.10;38.00;;;;;;5047622;28;20037;-68
2022/05/15 10:11:11;;;;;;;5.18;2.30;;;29.20;37.70;;;;;;5033423;28;20029;-69
2022/05/15 10:13:53;;;;;;;6.53;2.70;;;29.30;37.20;;;;;;5032222;28;20033;-68
2022/05/15 10:16:23;;;;;;;5.95;2.40;;;29.50;36.90;;;;;;5033856;28;20116;-67
2022/05/15 10:18:49;;;;;;;;;;;29.70;37.20;;;;;;5036390;28;20120;-67
2022/05/15 10:21:15;;;;;;;6.57;2.40;;;29.90;37.10;;;;;;5034596;28;20354;-68
2022/05/15 10:23:56;;;;;;;7.05;3.58;;;30.20;35.40;;;;;;5038137;28;20033;-67
2022/05/15 10:26:27;;;;;;;6.78;2.20;;;30.50;35.20;;;;;;5029407;28;20036;-68
2022/05/15 10:29:09;;;;;;;5.10;2.38;;;30.40;34.40;;;;;;5036568;28;20035;-68
2022/05/15 10:31:48;;;;;;;7.57;2.63;;;30.30;34.80;;;;;;5042074;28;20044;-67
2022/05/15 10:34:18;;;;;;;6.13;2.30;;;30.30;35.10;;;;;;5031819;28;20030;-67
2022/05/15 10:36:43;;;;;;;8.52;2.38;;;30.00;35.10;;;;;;5031354;28;20510;-67
2022/05/15 10:39:27;;;;;;;5.90;3.22;;;29.70;35.80;;;;;;5037261;28;20104;-67
2022/05/15 10:42:25;;;;;;;7.53;3.40;;;29.60;36.10;;;;;;5029300;28;20889;-67
2022/05/15 10:45:22;;;;;;;5.32;2.00;;;29.70;36.40;;;;;;5030926;28;20049;-68
2022/05/15 10:48:09;;;;;;;5.90;2.85;;;30.40;35.20;;;;;;5041595;28;20543;-67
2022/05/15 10:51:13;;;;;;;6.45;2.15;;;31.10;34.30;;;;;;5033750;28;20037;-67
2022/05/15 10:59:46;;;;;;;5.20;2.30;;;33.10;31.00;;;;;;5031008;28;20032;-67
2022/05/15 11:02:30;;;;;;;9.10;2.78;;;32.70;30.90;;;;;;5035555;28;20032;-67
2022/05/15 11:05:24;;;;;;;5.93;2.30;;;32.30;31.00;;;;;;5030332;28;20083;-67
2022/05/15 11:08:05;;;;;;;5.75;1.98;;;32.70;30.00;;;;;;5033079;28;20104;-68
2022/05/15 11:10:52;;;;;;;8.15;2.28;;;33.50;29.90;;;;;;5041898;28;20090;-67
2022/05/15 11:13:26;;;;;;;7.80;2.05;;;34.30;28.60;;;;;;5040069;28;20024;-69
2022/05/15 11:16:19;;;;;;;6.32;2.40;;;35.10;27.80;;;;;;5029706;28;20026;-67
2022/05/15 11:18:55;;;;;;;5.90;2.47;;;33.90;29.00;;;;;;5041570;28;20024;-66
2022/05/15 11:21:36;;;;;;;5.13;2.40;;;32.60;30.50;;;;;;5035968;28;20025;-67
2022/05/15 11:24:13;;;;;;;6.05;2.20;;;31.70;32.00;;;;;;5045221;28;20037;-67
2022/05/15 11:26:47;;;;;;;8.70;2.42;;;31.30;33.10;;;;;;5035588;28;20064;-67
2022/05/15 11:29:15;;;;;;;4.10;2.15;;;30.90;33.70;;;;;;5040576;28;20052;-66
2022/05/15 11:31:50;;;;;;;6.50;2.40;;;30.80;33.50;;;;;;5046316;28;20037;-67
2022/05/15 11:34:16;;;;;;;7.90;2.20;;;30.40;34.90;;;;;;5043354;28;20060;-67
2022/05/15 11:36:45;;;;;;;6.47;2.95;;;29.90;36.20;;;;;;5041482;28;20034;-67
2022/05/15 11:39:14;;;;;;;9.77;2.40;;;29.60;36.30;;;;;;5039424;28;20469;-67
2022/05/15 11:42:14;;;;;;;8.13;2.28;;;29.50;36.90;;;;;;5034863;28;20086;-67
2022/05/15 11:44:44;;;;;;;4.80;2.22;;;29.50;36.70;;;;;;5036816;28;20036;-66
2022/05/15 11:47:34;;;;;;;6.47;3.00;;;29.50;37.10;;;;;;5038926;28;20480;-67
2022/05/15 11:50:09;;;;;;;;;;;29.80;36.60;;;;;;5034123;28;20028;-68
2022/05/15 11:52:53;;;;;;;6.13;2.40;;;31.50;32.70;;;;;;5032203;28;19909;-68
2022/05/15 11:55:42;;;;;;;13.82;2.20;;;32.70;31.60;;;;;;5034173;28;20128;-67
2022/05/15 11:58:16;;;;;;;6.75;2.20;;;34.70;29.00;;;;;;5037718;28;20028;-69
2022/05/15 12:00:42;;;;;;;15.15;2.30;;;36.40;27.50;;;;;;5038464;28;20033;-69
2022/05/15 12:03:42;;;;;;;6.28;2.20;;;36.00;28.00;;;;;;5044096;28;20044;-68
2022/05/15 12:06:14;;;;;;;8.10;2.08;;;34.80;29.60;;;;;;5031322;28;20052;-68
2022/05/15 12:08:42;;;;;;;8.52;3.10;;;34.60;29.70;;;;;;5033320;28;20064;-67
2022/05/15 12:11:34;;;;;;;10.63;3.60;;;35.70;28.90;;;;;;5034995;28;20564;-67
2022/05/15 12:14:22;;;;;;;5.93;2.05;;;37.80;26.40;;;;;;5033283;28;20057;-68
2022/05/15 12:17:00;;;;;;;8.30;2.03;;;39.20;24.40;;;;;;5046788;28;20107;-68
2022/05/15 12:19:34;;;;;;;5.72;1.80;;;40.20;23.20;;;;;;5042930;28;20537;-68
2022/05/15 12:22:07;;;;;;;6.32;1.90;;;40.80;22.40;;;;;;5033496;28;20021;-66
2022/05/15 12:24:36;;;;;;;4.75;1.70;;;41.60;21.90;;;;;;5033927;28;20108;-67
2022/05/15 12:27:20;;;;;;;4.78;1.80;;;41.80;21.70;;;;;;5031870;28;20072;-68
2022/05/15 12:30:13;;;;;;;4.63;1.75;;;42.10;21.40;;;;;;5038811;28;20037;-68
2022/05/15 12:32:41;;;;;;;8.35;1.80;;;42.50;20.70;;;;;;5043720;28;20088;-67
2022/05/15 12:35:47;;;;;;;5.40;1.80;;;42.80;20.00;;;;;;5047292;28;20037;-67
2022/05/15 12:38:12;;;;;;;5.55;1.70;;;43.20;19.60;;;;;;5040339;28;20029;-67
2022/05/15 12:40:43;;;;;;;7.55;1.70;;;43.10;19.50;;;;;;5037354;28;20049;-67
2022/05/15 12:43:27;;;;;;;7.00;1.60;;;42.00;20.80;;;;;;5037098;28;20024;-67
2022/05/15 12:45:54;;;;;;;7.13;2.03;;;41.90;20.50;;;;;;5033985;28;20029;-66
2022/05/15 12:48:20;;;;;;;8.02;1.80;;;40.70;22.10;;;;;;5039992;28;20037;-66
2022/05/15 12:51:06;;;;;;;6.13;1.90;;;40.70;21.90;;;;;;5038592;28;20345;-66
2022/05/15 12:53:37;;;;;;;7.15;2.35;;;39.60;23.10;;;;;;5034390;28;20045;-66
2022/05/15 12:56:25;;;;;;;3.65;1.73;;;39.10;23.00;;;;;;5036435;28;20132;-68
2022/05/15 12:58:58;;;;;;;6.68;1.90;;;40.30;21.60;;;;;;5037584;28;20115;-67
2022/05/15 13:01:31;;;;;;;6.13;1.80;;;40.90;21.20;;;;;;5039930;28;20029;-68
2022/05/15 13:04:01;;;;;;;6.10;1.90;;;40.40;21.60;;;;;;5033077;28;20068;-67
2022/05/15 13:06:40;;;;;;;3.97;1.92;;;40.60;21.30;;;;;;5033871;28;20342;-67
2022/05/15 13:09:18;;;;;;;6.53;2.00;;;40.40;21.50;;;;;;5038728;28;20556;-67
2022/05/15 13:11:46;;;;;;;5.13;1.92;;;41.20;20.60;;;;;;5029948;28;20326;-68
2022/05/15 13:14:25;;;;;;;6.85;1.83;;;40.80;20.70;;;;;;5038393;28;20025;-68
2022/05/15 13:16:53;;;;;;;6.53;1.73;;;40.70;21.00;;;;;;5038669;28;20091;-67
2022/05/15 13:19:51;;;;;;;5.85;1.95;;;40.90;21.20;;;;;;5041936;28;20040;-67
2022/05/15 13:22:21;;;;;;;7.68;1.80;;;39.70;22.30;;;;;;5036998;28;20049;-67
2022/05/15 13:24:48;;;;;;;6.28;2.15;;;39.40;22.00;;;;;;5040890;28;20029;-67